Terminal Aerodrome Forecast
Issued by NWS Sterling, VA

Home | Current Version | Previous Version | Text Only | Print | Product List | Glossary On
Versions: 1 2 3 4 5 6 7 8 9 10 11 12 13 14 15 16 17 18 19 20 21 22 23 24 25 26
828
FTUS41 KLWX 252204 AAC
TAFDCA
TAF AMD
KDCA 252204Z 2522/2618 21009G17KT P6SM VCTS BKN060CB
      TEMPO 2522/2523 27020G30KT 3SM -TSRA BR SCT025CB OVC060
     FM260300 25005KT P6SM BKN060
     FM261300 32005KT P6SM BKN120=

USA.gov is the U.S. government's official web portal to all federal, state and local government web resources and services.